Aviation Digital Data Service (ADDS)

Output produced by METARs form (0123 UTC 24 September 2018)
found at http://www.aviationweather.gov/metar/data/
 
KMGW 240053Z 08004KT 10SM FEW041 BKN065 16/14 A3018 RMK AO2 SLP218 T01610139
KMGW 232353Z VRB06KT 10SM SCT041 OVC065 17/14 A3017 RMK AO2 SLP213 T01670139 10206 20167 51004
KMGW 232315Z 10006KT 10SM SCT027 BKN039 BKN070 17/14 A3016 RMK AO2 T01670144
KMGW 232253Z 10005KT 10SM OVC027 17/14 A3016 RMK AO2 SLP211 T01720144
KMGW 232207Z 10005KT 10SM OVC029 17/14 A3017 RMK AO2 T01720144
KMGW 232153Z 10004KT 10SM OVC030 17/14 A3017 RMK AO2 SLP212 VCSHRA T01720144
KMGW 232144Z 09008KT 10SM BKN030 OVC042 18/14 A3016 RMK AO2 VCSHRA T01780144
KMGW 232053Z 09005KT 10SM BKN028 OVC065 19/16 A3016 RMK AO2 SLP208 T01890156 55005
KMGW 232040Z 09006KT 10SM BKN027 OVC060 19/15 A3016 RMK AO2 T01890150
KMGW 232030Z 11004KT 10SM SCT027 OVC060 19/15 A3016 RMK AO2 T01890150
KMGW 232023Z 11005KT 10SM BKN027 BKN046 OVC060 19/16 A3016 RMK AO2 T01890156
KMGW 232013Z 09005KT 10SM SCT029 OVC060 19/16 A3016 RMK AO2 T01940156
KMGW 231953Z 11006KT 10SM BKN028 OVC080 19/16 A3015 RMK AO2 SLP207 T01940156
KMGW 231925Z 10004KT 10SM BKN027 OVC041 19/16 A3015 RMK AO2 T01940156
KMGW 231853Z VRB04KT 10SM BKN045 OVC080 20/16 A3016 RMK AO2 SLP209 T02000156
KMGW 231753Z VRB05KT 10SM FEW017 FEW031 OVC047 20/16 A3017 RMK AO2 SLP213 T02000161 10200 20139 58006
KMGW 231653Z 02003KT 10SM BKN110 18/16 A3018 RMK AO2 SLP217 T01830156
KMGW 231553Z 01004KT 10SM SCT120 17/15 A3019 RMK AO2 SLP219 T01720150
KMGW 231453Z 01004KT 10SM FEW005 SCT065 16/15 A3019 RMK AO2 SLP222 T01610150 51014
KMGW 231353Z 02006KT 5SM BR FEW003 BKN050 14/14 A3018 RMK AO2 SLP218 T01440139
KMGW 231346Z 01004KT 5SM BR FEW003 BKN050 14/14 A3018 RMK AO2 T01440139
KMGW 231310Z 02006KT 2SM BR BKN002 14/14 A3018 RMK AO2 T01440139
KMGW 231253Z 35005KT 8SM SCT002 BKN070 14/14 A3017 RMK AO2 SLP214 T01440139
KMGW 231232Z VRB04KT 7SM SCT002 14/14 A3017 RMK AO2 T01440139
KMGW 231153Z 33003KT 10SM SCT110 14/14 A3015 RMK AO2 SLP207 60007 70007 T01440139 10144 20133 58004
KMGW 231053Z 00000KT 9SM BKN075 OVC110 14/14 A3015 RMK AO2 RAB17E31 SLP208 P0000 T01390139
KMGW 230953Z AUTO 32003KT 9SM SCT070 BKN100 14/14 A3017 RMK AO2 RAE33 SLP213 P0002 T01390139
KMGW 230853Z AUTO 18003KT 7SM -RA BKN070 OVC090 14/14 A3016 RMK AO2 SLP211 P0003 60005 T01390139 58007
KMGW 230753Z AUTO 03003KT 10SM -RA FEW004 SCT120 13/13 A3017 RMK AO2 RAE22B44 SLP212 P0002 T01330133
KMGW 230737Z AUTO 35003KT 10SM FEW003 BKN110 13/13 A3018 RMK AO2 RAE22 P0001 T01330133
KMGW 230653Z AUTO 30003KT 10SM -RA OVC095 14/13 A3020 RMK AO2 RAB22 SLP222 P0000 T01390128
KMGW 230553Z AUTO 00000KT 10SM BKN100 14/12 A3019 RMK AO2 SLP218 T01390122 10150 20133 56010
KMGW 230453Z AUTO 35004KT 10SM BKN110 14/12 A3019 RMK AO2 SLP220 T01390122 402110133
KMGW 230353Z AUTO 33003KT 10SM FEW090 SCT120 14/12 A3020 RMK AO2 SLP224 T01390122
KMGW 230253Z 01005KT 10SM FEW100 BKN120 14/12 A3022 RMK AO2 SLP229 T01390117 53004
KMGW 230153Z 01003KT 10SM CLR 14/12 A3020 RMK AO2 SLP224 T01440117
KMGW 240114Z 2401/2424 10006KT P6SM BKN040 
     FM241000 11010KT P6SM VCSH OVC025 
     FM241200 12008G16KT 4SM -RA OVC012 
     FM241600 13009KT P6SM BKN035